sensor_id;sensor_type;location;lat;lon;timestamp;P1;durP1;ratioP1;P2;durP2;ratioP2
45760;SDS011;31471;51.040;14.414;2022-08-14T00:02:25;10.52;;;9.05;;
45760;SDS011;31471;51.040;14.414;2022-08-14T00:07:17;15.43;;;9.60;;
45760;SDS011;31471;51.040;14.414;2022-08-14T00:12:09;9.40;;;8.43;;
45760;SDS011;31471;51.040;14.414;2022-08-14T00:17:00;11.70;;;9.50;;
45760;SDS011;31471;51.040;14.414;2022-08-14T00:21:52;12.82;;;9.52;;
45760;SDS011;31471;51.040;14.414;2022-08-14T00:26:43;11.43;;;9.82;;
45760;SDS011;31471;51.040;14.414;2022-08-14T00:31:34;11.18;;;9.27;;
45760;SDS011;31471;51.040;14.414;2022-08-14T00:34:00;14.10;;;10.52;;
45760;SDS011;31471;51.040;14.414;2022-08-14T00:38:51;11.02;;;9.57;;
45760;SDS011;31471;51.040;14.414;2022-08-14T00:41:17;13.93;;;9.95;;
45760;SDS011;31471;51.040;14.414;2022-08-14T00:43:43;13.05;;;9.52;;
45760;SDS011;31471;51.040;14.414;2022-08-14T00:48:35;12.63;;;10.00;;
45760;SDS011;31471;51.040;14.414;2022-08-14T00:51:03;12.25;;;9.48;;
45760;SDS011;31471;51.040;14.414;2022-08-14T00:53:29;12.18;;;10.07;;
45760;SDS011;31471;51.040;14.414;2022-08-14T00:55:55;14.45;;;10.90;;
45760;SDS011;31471;51.040;14.414;2022-08-14T01:00:58;15.02;;;10.68;;
45760;SDS011;31471;51.040;14.414;2022-08-14T01:03:26;13.70;;;10.50;;
45760;SDS011;31471;51.040;14.414;2022-08-14T01:05:55;12.75;;;9.77;;
45760;SDS011;31471;51.040;14.414;2022-08-14T01:10:48;13.60;;;9.88;;
45760;SDS011;31471;51.040;14.414;2022-08-14T01:13:18;12.55;;;10.52;;
45760;SDS011;31471;51.040;14.414;2022-08-14T01:15:52;13.88;;;10.70;;
45760;SDS011;31471;51.040;14.414;2022-08-14T01:18:22;14.25;;;11.00;;
45760;SDS011;31471;51.040;14.414;2022-08-14T01:21:09;13.10;;;10.60;;
45760;SDS011;31471;51.040;14.414;2022-08-14T01:23:48;12.65;;;9.60;;
45760;SDS011;31471;51.040;14.414;2022-08-14T01:26:16;12.05;;;10.43;;
45760;SDS011;31471;51.040;14.414;2022-08-14T01:28:48;13.35;;;10.35;;
45760;SDS011;31471;51.040;14.414;2022-08-14T01:31:19;14.48;;;11.40;;
45760;SDS011;31471;51.040;14.414;2022-08-14T01:33:47;14.35;;;10.38;;
45760;SDS011;31471;51.040;14.414;2022-08-14T01:36:14;14.40;;;10.98;;
45760;SDS011;31471;51.040;14.414;2022-08-14T01:38:42;13.75;;;10.70;;
45760;SDS011;31471;51.040;14.414;2022-08-14T01:41:13;14.70;;;11.00;;
45760;SDS011;31471;51.040;14.414;2022-08-14T01:43:42;15.85;;;11.70;;
45760;SDS011;31471;51.040;14.414;2022-08-14T01:46:10;17.08;;;11.73;;
45760;SDS011;31471;51.040;14.414;2022-08-14T01:48:36;15.93;;;10.95;;
45760;SDS011;31471;51.040;14.414;2022-08-14T01:51:05;12.75;;;10.60;;
45760;SDS011;31471;51.040;14.414;2022-08-14T01:53:31;14.68;;;11.68;;
45760;SDS011;31471;51.040;14.414;2022-08-14T01:55:58;15.25;;;10.95;;
45760;SDS011;31471;51.040;14.414;2022-08-14T01:58:27;14.98;;;10.80;;
45760;SDS011;31471;51.040;14.414;2022-08-14T02:00:55;12.43;;;10.88;;
45760;SDS011;31471;51.040;14.414;2022-08-14T02:03:23;14.18;;;11.50;;
45760;SDS011;31471;51.040;14.414;2022-08-14T02:05:54;14.35;;;11.07;;
45760;SDS011;31471;51.040;14.414;2022-08-14T02:08:22;11.30;;;9.93;;
45760;SDS011;31471;51.040;14.414;2022-08-14T02:10:54;12.00;;;10.63;;
45760;SDS011;31471;51.040;14.414;2022-08-14T02:13:44;15.57;;;10.98;;
45760;SDS011;31471;51.040;14.414;2022-08-14T02:16:12;13.65;;;10.88;;
45760;SDS011;31471;51.040;14.414;2022-08-14T02:18:40;16.48;;;11.88;;
45760;SDS011;31471;51.040;14.414;2022-08-14T02:21:07;15.57;;;12.02;;
45760;SDS011;31471;51.040;14.414;2022-08-14T02:23:33;16.38;;;10.95;;
45760;SDS011;31471;51.040;14.414;2022-08-14T02:25:59;13.60;;;11.02;;
45760;SDS011;31471;51.040;14.414;2022-08-14T02:28:28;17.20;;;11.88;;
45760;SDS011;31471;51.040;14.414;2022-08-14T02:30:55;15.02;;;11.95;;
45760;SDS011;31471;51.040;14.414;2022-08-14T02:33:23;15.13;;;12.10;;
45760;SDS011;31471;51.040;14.414;2022-08-14T02:35:48;14.00;;;11.48;;
45760;SDS011;31471;51.040;14.414;2022-08-14T02:40:39;14.60;;;11.18;;
45760;SDS011;31471;51.040;14.414;2022-08-14T02:43:05;15.35;;;11.50;;
45760;SDS011;31471;51.040;14.414;2022-08-14T02:45:31;14.23;;;11.27;;
45760;SDS011;31471;51.040;14.414;2022-08-14T02:47:59;15.85;;;11.68;;
45760;SDS011;31471;51.040;14.414;2022-08-14T02:50:26;15.13;;;12.13;;
45760;SDS011;31471;51.040;14.414;2022-08-14T02:52:52;12.48;;;10.32;;
45760;SDS011;31471;51.040;14.414;2022-08-14T02:57:44;15.70;;;11.38;;
45760;SDS011;31471;51.040;14.414;2022-08-14T03:00:13;13.70;;;10.80;;
45760;SDS011;31471;51.040;14.414;2022-08-14T03:02:38;15.93;;;12.00;;
45760;SDS011;31471;51.040;14.414;2022-08-14T03:05:06;14.88;;;11.60;;
45760;SDS011;31471;51.040;14.414;2022-08-14T03:07:32;13.48;;;11.05;;
45760;SDS011;31471;51.040;14.414;2022-08-14T03:09:58;14.52;;;11.48;;
45760;SDS011;31471;51.040;14.414;2022-08-14T03:12:27;15.23;;;12.30;;
45760;SDS011;31471;51.040;14.414;2022-08-14T03:14:52;16.35;;;11.43;;
45760;SDS011;31471;51.040;14.414;2022-08-14T03:19:43;13.20;;;10.63;;
45760;SDS011;31471;51.040;14.414;2022-08-14T03:24:34;13.57;;;10.23;;
45760;SDS011;31471;51.040;14.414;2022-08-14T03:27:03;14.90;;;11.55;;
45760;SDS011;31471;51.040;14.414;2022-08-14T03:29:30;14.48;;;11.23;;
45760;SDS011;31471;51.040;14.414;2022-08-14T03:31:55;13.95;;;11.00;;
45760;SDS011;31471;51.040;14.414;2022-08-14T03:34:21;14.38;;;10.98;;
45760;SDS011;31471;51.040;14.414;2022-08-14T03:36:50;15.00;;;10.95;;
45760;SDS011;31471;51.040;14.414;2022-08-14T03:39:19;15.57;;;11.27;;
45760;SDS011;31471;51.040;14.414;2022-08-14T03:41:47;13.23;;;10.75;;
45760;SDS011;31471;51.040;14.414;2022-08-14T03:44:17;15.98;;;11.77;;
45760;SDS011;31471;51.040;14.414;2022-08-14T03:49:08;16.35;;;12.80;;
45760;SDS011;31471;51.040;14.414;2022-08-14T03:51:35;14.60;;;10.80;;
45760;SDS011;31471;51.040;14.414;2022-08-14T03:54:02;15.00;;;11.68;;
45760;SDS011;31471;51.040;14.414;2022-08-14T03:56:33;15.73;;;12.18;;
45760;SDS011;31471;51.040;14.414;2022-08-14T03:59:02;15.00;;;11.75;;
45760;SDS011;31471;51.040;14.414;2022-08-14T04:01:33;15.85;;;11.38;;
45760;SDS011;31471;51.040;14.414;2022-08-14T04:03:59;17.25;;;11.82;;
45760;SDS011;31471;51.040;14.414;2022-08-14T04:06:29;15.40;;;11.07;;
45760;SDS011;31471;51.040;14.414;2022-08-14T04:08:55;14.68;;;11.38;;
45760;SDS011;31471;51.040;14.414;2022-08-14T04:13:46;12.63;;;10.00;;
45760;SDS011;31471;51.040;14.414;2022-08-14T04:16:14;14.85;;;11.52;;
45760;SDS011;31471;51.040;14.414;2022-08-14T04:18:46;14.20;;;11.23;;
45760;SDS011;31471;51.040;14.414;2022-08-14T04:21:15;14.38;;;10.98;;
45760;SDS011;31471;51.040;14.414;2022-08-14T04:23:42;13.93;;;11.20;;
45760;SDS011;31471;51.040;14.414;2022-08-14T04:26:10;16.92;;;11.70;;
45760;SDS011;31471;51.040;14.414;2022-08-14T04:28:37;15.05;;;11.90;;
45760;SDS011;31471;51.040;14.414;2022-08-14T04:31:05;17.15;;;12.02;;
45760;SDS011;31471;51.040;14.414;2022-08-14T04:33:32;16.70;;;11.68;;
45760;SDS011;31471;51.040;14.414;2022-08-14T04:35:58;15.38;;;12.23;;
45760;SDS011;31471;51.040;14.414;2022-08-14T04:38:23;15.93;;;12.32;;
45760;SDS011;31471;51.040;14.414;2022-08-14T04:41:08;15.93;;;12.38;;
45760;SDS011;31471;51.040;14.414;2022-08-14T04:43:53;17.63;;;11.25;;
45760;SDS011;31471;51.040;14.414;2022-08-14T04:46:19;18.67;;;12.32;;
45760;SDS011;31471;51.040;14.414;2022-08-14T04:48:46;15.95;;;11.73;;
45760;SDS011;31471;51.040;14.414;2022-08-14T04:51:14;18.20;;;12.75;;
45760;SDS011;31471;51.040;14.414;2022-08-14T04:53:42;17.65;;;12.40;;
45760;SDS011;31471;51.040;14.414;2022-08-14T04:56:10;17.75;;;12.60;;
45760;SDS011;31471;51.040;14.414;2022-08-14T04:58:38;17.63;;;12.43;;
45760;SDS011;31471;51.040;14.414;2022-08-14T05:01:04;18.92;;;14.43;;
45760;SDS011;31471;51.040;14.414;2022-08-14T05:03:32;17.48;;;14.13;;
45760;SDS011;31471;51.040;14.414;2022-08-14T05:06:03;16.67;;;13.68;;
45760;SDS011;31471;51.040;14.414;2022-08-14T05:08:32;16.33;;;12.55;;
45760;SDS011;31471;51.040;14.414;2022-08-14T05:10:59;18.17;;;13.48;;
45760;SDS011;31471;51.040;14.414;2022-08-14T05:13:31;16.60;;;13.25;;
45760;SDS011;31471;51.040;14.414;2022-08-14T05:15:58;17.63;;;13.82;;
45760;SDS011;31471;51.040;14.414;2022-08-14T05:18:28;16.70;;;13.20;;
45760;SDS011;31471;51.040;14.414;2022-08-14T05:21:00;15.32;;;12.80;;
45760;SDS011;31471;51.040;14.414;2022-08-14T05:23:28;16.80;;;12.90;;
45760;SDS011;31471;51.040;14.414;2022-08-14T05:25:59;18.45;;;13.77;;
45760;SDS011;31471;51.040;14.414;2022-08-14T05:28:27;21.13;;;15.90;;
45760;SDS011;31471;51.040;14.414;2022-08-14T05:30:59;19.05;;;14.68;;
45760;SDS011;31471;51.040;14.414;2022-08-14T05:33:27;18.33;;;14.50;;
45760;SDS011;31471;51.040;14.414;2022-08-14T05:35:55;20.00;;;15.23;;
45760;SDS011;31471;51.040;14.414;2022-08-14T05:38:25;20.83;;;15.43;;
45760;SDS011;31471;51.040;14.414;2022-08-14T05:40:57;17.80;;;13.45;;
45760;SDS011;31471;51.040;14.414;2022-08-14T05:43:27;18.13;;;13.60;;
45760;SDS011;31471;51.040;14.414;2022-08-14T05:45:55;18.92;;;14.65;;
45760;SDS011;31471;51.040;14.414;2022-08-14T05:48:21;16.25;;;12.88;;
45760;SDS011;31471;51.040;14.414;2022-08-14T05:50:48;19.00;;;14.55;;
45760;SDS011;31471;51.040;14.414;2022-08-14T05:53:13;19.60;;;14.27;;
45760;SDS011;31471;51.040;14.414;2022-08-14T05:58:05;19.50;;;14.45;;
45760;SDS011;31471;51.040;14.414;2022-08-14T06:00:36;18.13;;;14.02;;
45760;SDS011;31471;51.040;14.414;2022-08-14T06:03:04;18.83;;;14.75;;
45760;SDS011;31471;51.040;14.414;2022-08-14T06:05:35;18.85;;;14.45;;
45760;SDS011;31471;51.040;14.414;2022-08-14T06:08:00;19.55;;;15.27;;
45760;SDS011;31471;51.040;14.414;2022-08-14T06:10:27;20.05;;;14.88;;
45760;SDS011;31471;51.040;14.414;2022-08-14T06:12:55;19.15;;;14.73;;
45760;SDS011;31471;51.040;14.414;2022-08-14T06:15:21;22.25;;;14.23;;
45760;SDS011;31471;51.040;14.414;2022-08-14T06:17:48;21.02;;;15.80;;
45760;SDS011;31471;51.040;14.414;2022-08-14T06:20:15;17.73;;;14.93;;
45760;SDS011;31471;51.040;14.414;2022-08-14T06:22:41;22.00;;;18.23;;
45760;SDS011;31471;51.040;14.414;2022-08-14T06:25:08;24.13;;;19.60;;
45760;SDS011;31471;51.040;14.414;2022-08-14T06:27:36;25.70;;;19.75;;
45760;SDS011;31471;51.040;14.414;2022-08-14T06:30:06;21.35;;;16.20;;
45760;SDS011;31471;51.040;14.414;2022-08-14T06:32:32;21.42;;;17.35;;
45760;SDS011;31471;51.040;14.414;2022-08-14T06:37:24;19.58;;;14.88;;
45760;SDS011;31471;51.040;14.414;2022-08-14T06:39:51;20.50;;;15.27;;
45760;SDS011;31471;51.040;14.414;2022-08-14T06:44:42;18.75;;;14.15;;
45760;SDS011;31471;51.040;14.414;2022-08-14T06:47:09;20.17;;;14.60;;
45760;SDS011;31471;51.040;14.414;2022-08-14T06:52:01;17.37;;;14.07;;
45760;SDS011;31471;51.040;14.414;2022-08-14T06:54:27;17.75;;;14.40;;
45760;SDS011;31471;51.040;14.414;2022-08-14T06:59:19;21.30;;;14.38;;
45760;SDS011;31471;51.040;14.414;2022-08-14T07:04:28;15.35;;;12.25;;
45760;SDS011;31471;51.040;14.414;2022-08-14T07:07:13;16.60;;;13.63;;
45760;SDS011;31471;51.040;14.414;2022-08-14T07:12:04;14.82;;;12.40;;
45760;SDS011;31471;51.040;14.414;2022-08-14T07:16:55;15.82;;;12.02;;
45760;SDS011;31471;51.040;14.414;2022-08-14T07:21:47;12.47;;;10.73;;
45760;SDS011;31471;51.040;14.414;2022-08-14T07:26:38;11.93;;;10.63;;
45760;SDS011;31471;51.040;14.414;2022-08-14T07:31:30;12.75;;;10.65;;
45760;SDS011;31471;51.040;14.414;2022-08-14T07:33:55;11.90;;;10.02;;
45760;SDS011;31471;51.040;14.414;2022-08-14T07:38:47;12.02;;;10.57;;
45760;SDS011;31471;51.040;14.414;2022-08-14T07:43:41;11.13;;;9.85;;
45760;SDS011;31471;51.040;14.414;2022-08-14T07:46:08;12.57;;;10.55;;
45760;SDS011;31471;51.040;14.414;2022-08-14T07:48:37;12.40;;;9.55;;
45760;SDS011;31471;51.040;14.414;2022-08-14T07:51:04;10.13;;;9.00;;
45760;SDS011;31471;51.040;14.414;2022-08-14T07:53:30;9.80;;;8.80;;
45760;SDS011;31471;51.040;14.414;2022-08-14T07:55:57;9.73;;;8.68;;
45760;SDS011;31471;51.040;14.414;2022-08-14T07:58:23;10.95;;;8.23;;
45760;SDS011;31471;51.040;14.414;2022-08-14T08:00:48;10.57;;;8.02;;
45760;SDS011;31471;51.040;14.414;2022-08-14T08:03:18;8.00;;;7.20;;
45760;SDS011;31471;51.040;14.414;2022-08-14T08:05:44;8.38;;;7.57;;
45760;SDS011;31471;51.040;14.414;2022-08-14T08:08:10;7.72;;;6.93;;
45760;SDS011;31471;51.040;14.414;2022-08-14T08:10:36;8.35;;;7.40;;
45760;SDS011;31471;51.040;14.414;2022-08-14T08:13:12;9.10;;;7.18;;
45760;SDS011;31471;51.040;14.414;2022-08-14T08:15:41;8.50;;;7.53;;
45760;SDS011;31471;51.040;14.414;2022-08-14T08:18:10;9.15;;;6.70;;
45760;SDS011;31471;51.040;14.414;2022-08-14T08:20:39;8.50;;;5.97;;
45760;SDS011;31471;51.040;14.414;2022-08-14T08:23:07;6.55;;;5.90;;
45760;SDS011;31471;51.040;14.414;2022-08-14T08:25:35;6.10;;;5.50;;
45760;SDS011;31471;51.040;14.414;2022-08-14T08:28:07;6.22;;;5.63;;
45760;SDS011;31471;51.040;14.414;2022-08-14T08:30:39;5.93;;;5.32;;
45760;SDS011;31471;51.040;14.414;2022-08-14T08:33:07;7.85;;;4.97;;
45760;SDS011;31471;51.040;14.414;2022-08-14T08:35:34;5.82;;;5.07;;
45760;SDS011;31471;51.040;14.414;2022-08-14T08:38:10;7.22;;;5.63;;
45760;SDS011;31471;51.040;14.414;2022-08-14T08:40:46;5.70;;;5.15;;
45760;SDS011;31471;51.040;14.414;2022-08-14T08:43:26;6.18;;;5.50;;
45760;SDS011;31471;51.040;14.414;2022-08-14T08:46:03;6.40;;;4.90;;
45760;SDS011;31471;51.040;14.414;2022-08-14T08:51:09;7.40;;;5.55;;
45760;SDS011;31471;51.040;14.414;2022-08-14T08:53:54;10.75;;;5.15;;
45760;SDS011;31471;51.040;14.414;2022-08-14T08:56:38;7.78;;;5.30;;
45760;SDS011;31471;51.040;14.414;2022-08-14T09:01:48;6.93;;;5.40;;
45760;SDS011;31471;51.040;14.414;2022-08-14T09:04:24;5.88;;;5.38;;
45760;SDS011;31471;51.040;14.414;2022-08-14T09:06:55;7.25;;;5.53;;
45760;SDS011;31471;51.040;14.414;2022-08-14T09:09:25;5.63;;;5.13;;
45760;SDS011;31471;51.040;14.414;2022-08-14T09:11:52;5.60;;;5.00;;
45760;SDS011;31471;51.040;14.414;2022-08-14T09:14:22;9.45;;;4.95;;
45760;SDS011;31471;51.040;14.414;2022-08-14T09:16:49;6.03;;;4.55;;
45760;SDS011;31471;51.040;14.414;2022-08-14T09:19:15;6.75;;;4.70;;
45760;SDS011;31471;51.040;14.414;2022-08-14T09:21:41;7.43;;;5.88;;
45760;SDS011;31471;51.040;14.414;2022-08-14T09:24:07;5.75;;;5.25;;
45760;SDS011;31471;51.040;14.414;2022-08-14T09:26:34;5.55;;;5.15;;
45760;SDS011;31471;51.040;14.414;2022-08-14T09:29:00;7.63;;;5.07;;
45760;SDS011;31471;51.040;14.414;2022-08-14T09:31:27;6.28;;;5.68;;
45760;SDS011;31471;51.040;14.414;2022-08-14T09:33:57;6.60;;;5.28;;
45760;SDS011;31471;51.040;14.414;2022-08-14T09:42:15;10.85;;;6.40;;
45760;SDS011;31471;51.040;14.414;2022-08-14T09:44:57;6.55;;;5.95;;
45760;SDS011;31471;51.040;14.414;2022-08-14T09:47:47;6.70;;;6.03;;
45760;SDS011;31471;51.040;14.414;2022-08-14T09:50:21;8.15;;;7.32;;
45760;SDS011;31471;51.040;14.414;2022-08-14T09:53:09;8.25;;;5.70;;
45760;SDS011;31471;51.040;14.414;2022-08-14T09:55:35;5.97;;;5.43;;
45760;SDS011;31471;51.040;14.414;2022-08-14T10:00:40;5.97;;;5.47;;
45760;SDS011;31471;51.040;14.414;2022-08-14T10:05:37;7.23;;;5.53;;
45760;SDS011;31471;51.040;14.414;2022-08-14T10:08:04;8.52;;;6.82;;
45760;SDS011;31471;51.040;14.414;2022-08-14T10:10:40;6.03;;;5.47;;
45760;SDS011;31471;51.040;14.414;2022-08-14T10:13:06;7.57;;;5.75;;
45760;SDS011;31471;51.040;14.414;2022-08-14T10:15:45;6.57;;;5.97;;
45760;SDS011;31471;51.040;14.414;2022-08-14T10:18:14;6.65;;;6.05;;
45760;SDS011;31471;51.040;14.414;2022-08-14T10:20:42;23.90;;;7.65;;
45760;SDS011;31471;51.040;14.414;2022-08-14T10:23:19;7.88;;;6.38;;
45760;SDS011;31471;51.040;14.414;2022-08-14T10:25:56;6.45;;;5.88;;
45760;SDS011;31471;51.040;14.414;2022-08-14T10:28:37;7.05;;;6.45;;
45760;SDS011;31471;51.040;14.414;2022-08-14T10:31:23;7.38;;;5.93;;
45760;SDS011;31471;51.040;14.414;2022-08-14T10:34:12;7.60;;;5.97;;
45760;SDS011;31471;51.040;14.414;2022-08-14T10:36:43;6.45;;;5.85;;
45760;SDS011;31471;51.040;14.414;2022-08-14T10:41:45;7.57;;;6.00;;
45760;SDS011;31471;51.040;14.414;2022-08-14T10:44:15;6.10;;;5.50;;
45760;SDS011;31471;51.040;14.414;2022-08-14T10:46:50;6.75;;;5.53;;
45760;SDS011;31471;51.040;14.414;2022-08-14T10:49:27;6.22;;;5.70;;
45760;SDS011;31471;51.040;14.414;2022-08-14T10:51:53;6.65;;;5.63;;
45760;SDS011;31471;51.040;14.414;2022-08-14T10:54:28;7.77;;;5.77;;
45760;SDS011;31471;51.040;14.414;2022-08-14T10:56:56;6.45;;;5.85;;
45760;SDS011;31471;51.040;14.414;2022-08-14T10:59:23;7.35;;;6.65;;
45760;SDS011;31471;51.040;14.414;2022-08-14T11:01:49;7.22;;;6.50;;
45760;SDS011;31471;51.040;14.414;2022-08-14T11:04:21;6.90;;;5.95;;
45760;SDS011;31471;51.040;14.414;2022-08-14T11:06:53;6.65;;;6.05;;
45760;SDS011;31471;51.040;14.414;2022-08-14T11:09:19;7.35;;;6.03;;
45760;SDS011;31471;51.040;14.414;2022-08-14T11:11:44;6.50;;;5.93;;
45760;SDS011;31471;51.040;14.414;2022-08-14T11:14:15;7.45;;;6.72;;
45760;SDS011;31471;51.040;14.414;2022-08-14T11:16:40;8.38;;;6.13;;
45760;SDS011;31471;51.040;14.414;2022-08-14T11:19:08;6.68;;;5.47;;
45760;SDS011;31471;51.040;14.414;2022-08-14T11:21:35;8.27;;;5.22;;
45760;SDS011;31471;51.040;14.414;2022-08-14T11:24:04;9.60;;;6.00;;
45760;SDS011;31471;51.040;14.414;2022-08-14T11:26:31;6.97;;;6.32;;
45760;SDS011;31471;51.040;14.414;2022-08-14T11:28:58;8.07;;;5.65;;
45760;SDS011;31471;51.040;14.414;2022-08-14T11:31:26;5.15;;;4.68;;
45760;SDS011;31471;51.040;14.414;2022-08-14T11:33:56;5.28;;;4.78;;
45760;SDS011;31471;51.040;14.414;2022-08-14T11:36:22;5.60;;;5.03;;
45760;SDS011;31471;51.040;14.414;2022-08-14T11:38:52;5.85;;;5.25;;
45760;SDS011;31471;51.040;14.414;2022-08-14T11:41:18;7.85;;;5.80;;
45760;SDS011;31471;51.040;14.414;2022-08-14T11:43:45;6.55;;;5.88;;
45760;SDS011;31471;51.040;14.414;2022-08-14T11:46:12;6.47;;;5.75;;
45760;SDS011;31471;51.040;14.414;2022-08-14T11:48:49;6.85;;;5.70;;
45760;SDS011;31471;51.040;14.414;2022-08-14T11:51:18;5.78;;;5.28;;
45760;SDS011;31471;51.040;14.414;2022-08-14T11:56:33;7.47;;;5.78;;
45760;SDS011;31471;51.040;14.414;2022-08-14T11:58:59;6.40;;;5.78;;
45760;SDS011;31471;51.040;14.414;2022-08-14T12:01:26;7.07;;;5.50;;
45760;SDS011;31471;51.040;14.414;2022-08-14T12:03:53;8.80;;;6.07;;
45760;SDS011;31471;51.040;14.414;2022-08-14T12:06:23;6.45;;;5.85;;
45760;SDS011;31471;51.040;14.414;2022-08-14T12:08:50;6.18;;;5.55;;
45760;SDS011;31471;51.040;14.414;2022-08-14T12:11:17;9.18;;;5.95;;
45760;SDS011;31471;51.040;14.414;2022-08-14T12:13:43;10.10;;;6.05;;
45760;SDS011;31471;51.040;14.414;2022-08-14T12:16:10;8.73;;;6.03;;
45760;SDS011;31471;51.040;14.414;2022-08-14T12:18:41;6.38;;;5.78;;
45760;SDS011;31471;51.040;14.414;2022-08-14T12:21:19;7.18;;;5.93;;
45760;SDS011;31471;51.040;14.414;2022-08-14T12:23:47;6.60;;;5.90;;
45760;SDS011;31471;51.040;14.414;2022-08-14T12:26:25;6.60;;;5.90;;
45760;SDS011;31471;51.040;14.414;2022-08-14T12:29:02;7.38;;;6.18;;
45760;SDS011;31471;51.040;14.414;2022-08-14T12:31:33;6.65;;;5.70;;
45760;SDS011;31471;51.040;14.414;2022-08-14T12:34:00;6.60;;;5.60;;
45760;SDS011;31471;51.040;14.414;2022-08-14T12:36:27;7.22;;;5.22;;
45760;SDS011;31471;51.040;14.414;2022-08-14T12:38:57;7.03;;;5.78;;
45760;SDS011;31471;51.040;14.414;2022-08-14T12:41:31;6.60;;;5.70;;
45760;SDS011;31471;51.040;14.414;2022-08-14T12:44:02;6.45;;;5.82;;
45760;SDS011;31471;51.040;14.414;2022-08-14T12:49:07;5.95;;;5.30;;
45760;SDS011;31471;51.040;14.414;2022-08-14T12:51:34;6.75;;;5.22;;
45760;SDS011;31471;51.040;14.414;2022-08-14T12:54:11;6.07;;;5.40;;
45760;SDS011;31471;51.040;14.414;2022-08-14T12:56:38;6.95;;;5.40;;
45760;SDS011;31471;51.040;14.414;2022-08-14T12:59:04;5.28;;;4.78;;
45760;SDS011;31471;51.040;14.414;2022-08-14T13:01:30;6.22;;;5.32;;
45760;SDS011;31471;51.040;14.414;2022-08-14T13:06:33;5.18;;;4.60;;
45760;SDS011;31471;51.040;14.414;2022-08-14T13:08:59;7.30;;;5.03;;
45760;SDS011;31471;51.040;14.414;2022-08-14T13:11:25;4.93;;;4.53;;
45760;SDS011;31471;51.040;14.414;2022-08-14T13:14:00;6.25;;;5.20;;
45760;SDS011;31471;51.040;14.414;2022-08-14T13:16:27;6.53;;;4.95;;
45760;SDS011;31471;51.040;14.414;2022-08-14T13:18:54;6.32;;;5.13;;
45760;SDS011;31471;51.040;14.414;2022-08-14T13:21:22;5.10;;;4.32;;
45760;SDS011;31471;51.040;14.414;2022-08-14T13:23:50;8.07;;;4.95;;
45760;SDS011;31471;51.040;14.414;2022-08-14T13:26:16;6.10;;;5.30;;
45760;SDS011;31471;51.040;14.414;2022-08-14T13:28:42;6.95;;;5.30;;
45760;SDS011;31471;51.040;14.414;2022-08-14T13:31:08;5.85;;;5.22;;
45760;SDS011;31471;51.040;14.414;2022-08-14T13:33:37;8.00;;;5.13;;
45760;SDS011;31471;51.040;14.414;2022-08-14T13:36:03;5.13;;;4.63;;
45760;SDS011;31471;51.040;14.414;2022-08-14T13:38:29;6.35;;;5.00;;
45760;SDS011;31471;51.040;14.414;2022-08-14T13:40:55;7.78;;;5.25;;
45760;SDS011;31471;51.040;14.414;2022-08-14T13:43:22;6.35;;;5.20;;
45760;SDS011;31471;51.040;14.414;2022-08-14T13:45:51;11.27;;;5.50;;
45760;SDS011;31471;51.040;14.414;2022-08-14T13:48:20;6.82;;;5.45;;
45760;SDS011;31471;51.040;14.414;2022-08-14T13:50:46;9.05;;;5.43;;
45760;SDS011;31471;51.040;14.414;2022-08-14T13:53:16;6.55;;;5.60;;
45760;SDS011;31471;51.040;14.414;2022-08-14T13:55:44;6.32;;;5.32;;
45760;SDS011;31471;51.040;14.414;2022-08-14T13:58:11;6.13;;;5.53;;
45760;SDS011;31471;51.040;14.414;2022-08-14T14:00:39;6.20;;;5.65;;
45760;SDS011;31471;51.040;14.414;2022-08-14T14:03:04;6.72;;;5.80;;
45760;SDS011;31471;51.040;14.414;2022-08-14T14:05:31;7.43;;;5.72;;
45760;SDS011;31471;51.040;14.414;2022-08-14T14:08:00;6.28;;;5.60;;
45760;SDS011;31471;51.040;14.414;2022-08-14T14:10:29;6.38;;;5.13;;
45760;SDS011;31471;51.040;14.414;2022-08-14T14:12:59;6.03;;;5.43;;
45760;SDS011;31471;51.040;14.414;2022-08-14T14:15:25;5.90;;;5.30;;
45760;SDS011;31471;51.040;14.414;2022-08-14T14:17:51;7.20;;;5.47;;
45760;SDS011;31471;51.040;14.414;2022-08-14T14:20:19;5.38;;;4.88;;
45760;SDS011;31471;51.040;14.414;2022-08-14T14:22:49;7.00;;;5.47;;
45760;SDS011;31471;51.040;14.414;2022-08-14T14:25:15;5.75;;;5.13;;
45760;SDS011;31471;51.040;14.414;2022-08-14T14:27:44;6.43;;;5.65;;
45760;SDS011;31471;51.040;14.414;2022-08-14T14:30:13;7.03;;;5.35;;
45760;SDS011;31471;51.040;14.414;2022-08-14T14:32:40;6.47;;;5.63;;
45760;SDS011;31471;51.040;14.414;2022-08-14T14:35:11;7.18;;;5.35;;
45760;SDS011;31471;51.040;14.414;2022-08-14T14:37:43;6.07;;;5.55;;
45760;SDS011;31471;51.040;14.414;2022-08-14T14:40:11;7.25;;;5.30;;
45760;SDS011;31471;51.040;14.414;2022-08-14T14:42:44;7.47;;;5.35;;
45760;SDS011;31471;51.040;14.414;2022-08-14T14:45:16;8.25;;;6.40;;
45760;SDS011;31471;51.040;14.414;2022-08-14T14:47:47;6.07;;;5.18;;
45760;SDS011;31471;51.040;14.414;2022-08-14T14:50:15;9.15;;;5.32;;
45760;SDS011;31471;51.040;14.414;2022-08-14T14:52:42;6.78;;;5.63;;
45760;SDS011;31471;51.040;14.414;2022-08-14T14:55:08;6.10;;;5.50;;
45760;SDS011;31471;51.040;14.414;2022-08-14T14:57:36;6.60;;;4.97;;
45760;SDS011;31471;51.040;14.414;2022-08-14T15:00:16;6.85;;;5.93;;
45760;SDS011;31471;51.040;14.414;2022-08-14T15:02:44;6.50;;;5.40;;
45760;SDS011;31471;51.040;14.414;2022-08-14T15:05:15;7.45;;;5.57;;
45760;SDS011;31471;51.040;14.414;2022-08-14T15:07:41;6.60;;;5.60;;
45760;SDS011;31471;51.040;14.414;2022-08-14T15:10:08;9.73;;;5.70;;
45760;SDS011;31471;51.040;14.414;2022-08-14T15:12:35;36.25;;;7.80;;
45760;SDS011;31471;51.040;14.414;2022-08-14T15:15:01;6.40;;;5.30;;
45760;SDS011;31471;51.040;14.414;2022-08-14T15:17:27;8.25;;;5.75;;
45760;SDS011;31471;51.040;14.414;2022-08-14T15:19:59;7.32;;;5.60;;
45760;SDS011;31471;51.040;14.414;2022-08-14T15:22:27;8.23;;;5.53;;
45760;SDS011;31471;51.040;14.414;2022-08-14T15:24:53;7.43;;;5.50;;
45760;SDS011;31471;51.040;14.414;2022-08-14T15:27:19;10.45;;;5.70;;
45760;SDS011;31471;51.040;14.414;2022-08-14T15:29:44;7.32;;;5.28;;
45760;SDS011;31471;51.040;14.414;2022-08-14T15:32:10;13.45;;;5.93;;
45760;SDS011;31471;51.040;14.414;2022-08-14T15:34:36;157.60;;;20.55;;
45760;SDS011;31471;51.040;14.414;2022-08-14T15:37:03;71.05;;;12.38;;
45760;SDS011;31471;51.040;14.414;2022-08-14T15:39:33;7.97;;;4.97;;
45760;SDS011;31471;51.040;14.414;2022-08-14T15:41:59;6.65;;;5.38;;
45760;SDS011;31471;51.040;14.414;2022-08-14T15:44:27;9.38;;;5.97;;
45760;SDS011;31471;51.040;14.414;2022-08-14T15:46:54;6.45;;;5.60;;
45760;SDS011;31471;51.040;14.414;2022-08-14T15:49:21;17.27;;;6.53;;
45760;SDS011;31471;51.040;14.414;2022-08-14T15:51:48;10.40;;;5.35;;
45760;SDS011;31471;51.040;14.414;2022-08-14T15:54:14;6.47;;;5.22;;
45760;SDS011;31471;51.040;14.414;2022-08-14T15:56:41;6.55;;;5.95;;
45760;SDS011;31471;51.040;14.414;2022-08-14T15:59:09;6.35;;;5.35;;
45760;SDS011;31471;51.040;14.414;2022-08-14T16:01:35;8.25;;;5.43;;
45760;SDS011;31471;51.040;14.414;2022-08-14T16:04:01;10.93;;;6.90;;
45760;SDS011;31471;51.040;14.414;2022-08-14T16:06:27;18.83;;;5.88;;
45760;SDS011;31471;51.040;14.414;2022-08-14T16:08:55;8.10;;;5.43;;
45760;SDS011;31471;51.040;14.414;2022-08-14T16:11:22;7.70;;;5.85;;